createdAt,value
2022-08-17T00:00:55.056Z,1.70
2022-08-17T00:03:27.230Z,1.52
2022-08-17T00:06:04.029Z,1.92
2022-08-17T00:08:32.989Z,1.65
2022-08-17T00:10:59.716Z,2.03
2022-08-17T00:13:31.789Z,2.00
2022-08-17T00:16:05.410Z,1.95
2022-08-17T00:18:58.370Z,1.55
2022-08-17T00:21:24.006Z,1.65
2022-08-17T00:23:52.296Z,1.98
2022-08-17T00:26:43.644Z,1.90
2022-08-17T00:29:05.994Z,1.85
2022-08-17T00:31:32.924Z,2.00
2022-08-17T00:33:59.591Z,1.88
2022-08-17T00:36:26.519Z,2.00
2022-08-17T00:38:53.133Z,1.90
2022-08-17T00:41:23.404Z,1.80
2022-08-17T00:43:57.391Z,1.98
2022-08-17T00:46:27.845Z,1.85
2022-08-17T00:48:54.687Z,2.10
2022-08-17T00:51:53.330Z,1.83
2022-08-17T00:54:50.702Z,1.80
2022-08-17T00:57:20.097Z,1.60
2022-08-17T00:59:55.968Z,2.20
2022-08-17T01:02:30.834Z,1.60
2022-08-17T01:05:01.224Z,1.90
2022-08-17T01:07:27.827Z,1.85
2022-08-17T01:09:54.486Z,1.98
2022-08-17T01:12:21.462Z,1.48
2022-08-17T01:14:48.075Z,1.80
2022-08-17T01:17:14.723Z,1.73
2022-08-17T01:19:42.087Z,1.73
2022-08-17T01:22:20.548Z,1.85
2022-08-17T01:24:50.398Z,1.80
2022-08-17T01:27:18.443Z,1.80
2022-08-17T01:29:50.388Z,1.92
2022-08-17T01:32:17.001Z,1.85
2022-08-17T01:34:50.291Z,1.95
2022-08-17T01:37:17.652Z,2.00
2022-08-17T01:39:56.141Z,1.75
2022-08-17T01:42:26.760Z,1.80
2022-08-17T01:44:55.886Z,1.90
2022-08-17T01:47:23.344Z,1.83
2022-08-17T01:49:50.688Z,1.80
2022-08-17T01:52:17.531Z,1.90
2022-08-17T01:54:45.827Z,2.00
2022-08-17T01:57:12.574Z,1.60
2022-08-17T01:59:39.296Z,1.83
2022-08-17T02:02:06.005Z,1.88
2022-08-17T02:04:32.749Z,2.10
2022-08-17T02:06:59.392Z,1.83
2022-08-17T02:09:29.983Z,2.05
2022-08-17T02:11:57.659Z,1.75
2022-08-17T02:14:25.313Z,1.83
2022-08-17T02:16:52.086Z,2.10
2022-08-17T02:19:18.901Z,2.00
2022-08-17T02:21:46.978Z,1.63
2022-08-17T02:25:01.044Z,1.88
2022-08-17T02:27:11.627Z,1.80
2022-08-17T02:29:38.257Z,2.03
2022-08-17T02:32:05.206Z,2.10
2022-08-17T02:34:31.855Z,1.90
2022-08-17T02:36:58.463Z,1.70
2022-08-17T02:39:25.197Z,1.75
2022-08-17T02:42:00.412Z,1.80
2022-08-17T02:44:35.349Z,1.83
2022-08-17T02:47:07.892Z,1.90
2022-08-17T02:49:34.481Z,1.90
2022-08-17T02:52:03.008Z,1.80
2022-08-17T02:54:40.395Z,1.90
2022-08-17T02:57:08.664Z,1.98
2022-08-17T02:59:35.354Z,1.95
2022-08-17T03:02:03.959Z,1.90
2022-08-17T03:04:31.064Z,2.53
2022-08-17T03:07:01.566Z,2.00
2022-08-17T03:09:28.201Z,2.10
2022-08-17T03:11:56.010Z,2.03
2022-08-17T03:14:26.148Z,1.90
2022-08-17T03:16:53.123Z,2.03
2022-08-17T03:19:19.737Z,2.17
2022-08-17T03:21:46.529Z,1.92
2022-08-17T03:24:21.744Z,1.92
2022-08-17T03:26:55.382Z,1.77
2022-08-17T03:29:21.970Z,2.10
2022-08-17T03:31:49.089Z,2.10
2022-08-17T03:34:16.026Z,1.98
2022-08-17T03:36:42.844Z,1.85
2022-08-17T03:39:09.569Z,1.88
2022-08-17T03:41:36.259Z,1.80
2022-08-17T03:44:03.191Z,1.85
2022-08-17T03:46:35.175Z,1.92
2022-08-17T03:49:06.479Z,1.95
2022-08-17T03:51:33.527Z,1.90
2022-08-17T03:54:00.280Z,2.10
2022-08-17T03:56:26.904Z,2.20
2022-08-17T03:58:53.484Z,2.05
2022-08-17T04:01:20.147Z,2.03
2022-08-17T04:03:46.817Z,2.17
2022-08-17T04:06:13.442Z,2.20
2022-08-17T04:08:40.055Z,2.03
2022-08-17T04:11:06.731Z,1.92
2022-08-17T04:13:33.331Z,2.00
2022-08-17T04:16:00.046Z,2.00
2022-08-17T04:18:26.762Z,2.15
2022-08-17T04:20:53.339Z,1.80
2022-08-17T04:23:20.078Z,2.20
2022-08-17T04:25:50.276Z,2.08
2022-08-17T04:28:18.042Z,2.13
2022-08-17T04:30:45.113Z,2.05
2022-08-17T04:33:16.609Z,2.15
2022-08-17T04:35:48.686Z,2.10
2022-08-17T04:38:17.699Z,2.15
2022-08-17T04:40:44.385Z,2.10
2022-08-17T04:43:15.777Z,2.20
2022-08-17T04:45:57.164Z,2.38
2022-08-17T04:48:27.865Z,2.25
2022-08-17T04:51:02.885Z,2.33
2022-08-17T04:53:29.533Z,2.33
2022-08-17T04:55:56.209Z,2.00
2022-08-17T04:58:22.895Z,2.20
2022-08-17T05:00:49.584Z,2.30
2022-08-17T05:03:16.271Z,2.17
2022-08-17T05:05:42.926Z,2.22
2022-08-17T05:08:09.757Z,2.05
2022-08-17T05:10:37.316Z,2.05
2022-08-17T05:13:14.348Z,2.22
2022-08-17T05:15:44.705Z,2.10
2022-08-17T05:18:11.887Z,2.30
2022-08-17T05:20:39.256Z,2.30
2022-08-17T05:23:07.571Z,2.00
2022-08-17T05:25:36.338Z,2.25
2022-08-17T05:28:04.496Z,1.83
2022-08-17T05:30:33.191Z,2.00
2022-08-17T05:33:08.041Z,2.00
2022-08-17T05:35:35.582Z,2.22
2022-08-17T05:38:02.224Z,2.05
2022-08-17T05:40:32.859Z,2.10
2022-08-17T05:43:10.681Z,2.08
2022-08-17T05:45:54.698Z,1.85
2022-08-17T05:48:22.699Z,2.30
2022-08-17T05:51:37.717Z,2.40
2022-08-17T05:54:26.206Z,2.13
2022-08-17T05:57:12.368Z,2.20
2022-08-17T06:00:20.340Z,1.98
2022-08-17T06:02:50.534Z,2.00
2022-08-17T06:05:17.186Z,2.60
2022-08-17T06:07:50.253Z,2.33
2022-08-17T06:10:30.231Z,2.00
2022-08-17T06:13:10.466Z,2.45
2022-08-17T06:16:02.832Z,2.10
2022-08-17T06:18:33.768Z,2.20
2022-08-17T06:21:02.046Z,2.35
2022-08-17T06:23:43.079Z,2.50
2022-08-17T06:26:34.535Z,2.00
2022-08-17T06:29:32.819Z,2.53
2022-08-17T06:31:59.429Z,2.20
2022-08-17T06:34:26.089Z,2.33
2022-08-17T06:37:03.725Z,2.15
2022-08-17T06:39:50.698Z,2.35
2022-08-17T06:43:05.283Z,2.25
2022-08-17T06:45:41.729Z,2.63
2022-08-17T06:48:15.600Z,3.63
2022-08-17T06:50:44.609Z,2.95
2022-08-17T06:53:24.617Z,2.60
2022-08-17T06:56:05.268Z,2.55
2022-08-17T06:58:32.407Z,2.70
2022-08-17T07:01:07.749Z,2.40
2022-08-17T07:06:50.980Z,2.25
2022-08-17T07:09:34.144Z,2.08
2022-08-17T07:12:04.451Z,1.95
2022-08-17T07:14:35.334Z,2.00
2022-08-17T07:17:22.439Z,1.90
2022-08-17T07:20:14.968Z,2.30
2022-08-17T07:23:00.185Z,2.40
2022-08-17T07:25:27.322Z,2.30
2022-08-17T07:27:55.187Z,2.10
2022-08-17T07:30:25.694Z,3.05
2022-08-17T07:33:07.117Z,2.45
2022-08-17T07:35:41.312Z,2.50
2022-08-17T07:38:25.349Z,1.90
2022-08-17T07:40:56.034Z,2.17
2022-08-17T07:43:26.077Z,2.17
2022-08-17T07:46:01.948Z,2.28
2022-08-17T07:48:28.681Z,2.10
2022-08-17T07:50:55.479Z,1.88
2022-08-17T07:53:24.281Z,2.10
2022-08-17T07:55:51.794Z,1.73
2022-08-17T07:58:20.075Z,2.00
2022-08-17T08:00:46.700Z,1.70
2022-08-17T08:03:23.693Z,1.80
2022-08-17T08:05:57.624Z,2.03
2022-08-17T08:08:40.459Z,2.40
2022-08-17T08:11:13.887Z,2.67
2022-08-17T08:13:41.731Z,1.80
2022-08-17T08:16:21.479Z,1.83
2022-08-17T08:18:55.640Z,2.20
2022-08-17T08:21:44.787Z,1.65
2022-08-17T08:24:18.702Z,1.48
2022-08-17T08:26:50.712Z,1.70
2022-08-17T08:29:20.387Z,1.80
2022-08-17T08:31:46.872Z,1.50
2022-08-17T08:35:00.580Z,1.55
2022-08-17T08:37:51.015Z,1.42
2022-08-17T08:40:42.549Z,1.42
2022-08-17T08:43:32.131Z,1.45
2022-08-17T08:46:07.948Z,1.38
2022-08-17T08:49:06.555Z,1.42
2022-08-17T08:51:55.825Z,1.40
2022-08-17T08:54:31.446Z,1.25
2022-08-17T08:57:24.302Z,1.58
2022-08-17T09:00:05.354Z,1.70
2022-08-17T09:03:01.220Z,1.63
2022-08-17T09:05:42.818Z,1.50
2022-08-17T09:08:19.846Z,1.42
2022-08-17T09:10:52.547Z,1.50
2022-08-17T09:13:27.019Z,1.42
2022-08-17T09:15:57.755Z,1.50
2022-08-17T09:18:59.068Z,1.45
2022-08-17T09:21:23.247Z,1.45
2022-08-17T09:24:21.705Z,1.48
2022-08-17T09:27:13.785Z,1.25
2022-08-17T09:29:44.634Z,1.30
2022-08-17T09:32:22.349Z,1.45
2022-08-17T09:34:53.657Z,1.40
2022-08-17T09:37:37.650Z,1.23
2022-08-17T09:40:23.929Z,1.02
2022-08-17T09:43:13.198Z,1.40
2022-08-17T09:45:47.385Z,1.15
2022-08-17T09:48:26.942Z,1.50
2022-08-17T09:51:06.462Z,1.20
2022-08-17T09:53:36.906Z,1.50
2022-08-17T09:56:09.316Z,1.30
2022-08-17T09:59:03.968Z,1.20
2022-08-17T10:01:39.419Z,1.13
2022-08-17T10:07:07.960Z,0.90
2022-08-17T10:09:46.865Z,1.70
2022-08-17T10:12:20.627Z,0.93
2022-08-17T10:14:58.117Z,1.23
2022-08-17T10:18:04.145Z,1.20
2022-08-17T10:20:59.627Z,1.10
2022-08-17T10:23:27.820Z,0.95
2022-08-17T10:26:09.565Z,1.20
2022-08-17T10:28:53.945Z,1.23
2022-08-17T10:31:35.498Z,1.13
2022-08-17T10:34:41.199Z,1.10
2022-08-17T10:37:28.751Z,1.10
2022-08-17T10:40:11.421Z,1.23
2022-08-17T10:43:02.404Z,1.02
2022-08-17T10:46:10.308Z,1.20
2022-08-17T10:48:38.567Z,1.10
2022-08-17T10:51:08.042Z,1.10
2022-08-17T10:53:34.556Z,1.10
2022-08-17T10:56:13.258Z,1.20
2022-08-17T10:58:55.993Z,1.30
2022-08-17T11:01:37.712Z,1.15
2022-08-17T11:04:17.416Z,0.90
2022-08-17T11:06:57.145Z,1.10
2022-08-17T11:10:08.297Z,1.08
2022-08-17T11:12:42.387Z,1.00
2022-08-17T11:15:17.948Z,1.13
2022-08-17T11:18:07.091Z,0.98
2022-08-17T11:20:46.183Z,1.10
2022-08-17T11:23:27.878Z,0.95
2022-08-17T11:25:58.771Z,1.20
2022-08-17T11:28:30.919Z,1.30
2022-08-17T11:30:59.268Z,0.90
2022-08-17T11:33:29.876Z,1.08
2022-08-17T11:36:38.004Z,1.30
2022-08-17T11:39:17.783Z,1.25
2022-08-17T11:41:55.710Z,1.10
2022-08-17T11:44:37.818Z,1.20
2022-08-17T11:47:23.038Z,1.02
2022-08-17T11:50:00.744Z,1.15
2022-08-17T11:52:38.341Z,1.17
2022-08-17T11:55:31.761Z,1.10
2022-08-17T11:58:05.340Z,0.95
2022-08-17T12:00:47.302Z,0.98
2022-08-17T12:03:22.699Z,1.33
2022-08-17T12:05:49.501Z,1.40
2022-08-17T12:08:19.534Z,1.10
2022-08-17T12:11:07.671Z,0.90
2022-08-17T12:13:45.829Z,1.00
2022-08-17T12:16:16.841Z,1.40
2022-08-17T12:18:57.475Z,1.10
2022-08-17T12:21:40.526Z,1.20
2022-08-17T12:24:28.828Z,1.40
2022-08-17T12:27:00.901Z,0.98
2022-08-17T12:29:38.410Z,1.10
2022-08-17T12:32:06.656Z,1.20
2022-08-17T12:34:36.005Z,1.20
2022-08-17T12:37:06.827Z,1.30
2022-08-17T12:39:33.939Z,0.95
2022-08-17T12:42:02.529Z,1.20
2022-08-17T12:44:35.486Z,1.10
2022-08-17T12:47:23.244Z,1.30
2022-08-17T12:49:54.422Z,1.17
2022-08-17T12:52:26.073Z,1.20
2022-08-17T12:55:19.254Z,1.38
2022-08-17T12:57:50.152Z,1.27
2022-08-17T13:00:25.874Z,1.00
2022-08-17T13:02:54.629Z,1.17
2022-08-17T13:05:25.469Z,1.10
2022-08-17T13:07:52.638Z,1.10
2022-08-17T13:10:30.074Z,1.08
2022-08-17T13:12:59.098Z,1.00
2022-08-17T13:15:29.666Z,1.15
2022-08-17T13:18:09.976Z,1.05
2022-08-17T13:20:37.132Z,1.00
2022-08-17T13:23:09.973Z,1.15
2022-08-17T13:25:38.834Z,1.15
2022-08-17T13:28:05.536Z,1.20
2022-08-17T13:30:32.483Z,1.08
2022-08-17T13:32:59.826Z,1.10
2022-08-17T13:35:39.755Z,1.00
2022-08-17T13:38:12.480Z,1.00
2022-08-17T13:40:42.522Z,1.10
2022-08-17T13:43:09.413Z,1.00
2022-08-17T13:45:50.825Z,1.17
2022-08-17T13:48:28.820Z,0.95
2022-08-17T13:50:55.422Z,1.13
2022-08-17T13:53:31.272Z,1.10
2022-08-17T13:56:33.447Z,1.10
2022-08-17T13:59:36.361Z,1.15
2022-08-17T14:02:11.554Z,1.20
2022-08-17T14:04:39.613Z,1.30
2022-08-17T14:07:09.230Z,1.20
2022-08-17T14:09:57.000Z,1.27
2022-08-17T14:12:25.300Z,1.15
2022-08-17T14:14:52.268Z,1.00
2022-08-17T14:17:18.966Z,1.20
2022-08-17T14:19:45.581Z,1.10
2022-08-17T14:22:18.262Z,1.10
2022-08-17T14:24:45.187Z,1.27
2022-08-17T14:27:11.891Z,1.25
2022-08-17T14:29:38.562Z,1.00
2022-08-17T14:32:21.803Z,1.02
2022-08-17T14:34:49.415Z,0.98
2022-08-17T14:37:17.084Z,0.75
2022-08-17T14:39:43.833Z,1.10
2022-08-17T14:42:10.560Z,1.10
2022-08-17T14:44:38.744Z,1.20
2022-08-17T14:47:26.892Z,1.40
2022-08-17T14:49:53.527Z,1.20
2022-08-17T14:52:20.702Z,1.20
2022-08-17T14:54:48.632Z,1.15
2022-08-17T14:57:25.933Z,1.25
2022-08-17T15:00:00.656Z,1.10
2022-08-17T15:02:30.059Z,1.50
2022-08-17T15:05:04.485Z,1.40
2022-08-17T15:07:33.093Z,1.05
2022-08-17T15:10:00.637Z,1.05
2022-08-17T15:12:32.239Z,1.08
2022-08-17T15:14:59.742Z,1.23
2022-08-17T15:17:26.407Z,1.10
2022-08-17T15:20:19.237Z,1.27
2022-08-17T15:22:46.154Z,1.17
2022-08-17T15:25:12.959Z,0.77
2022-08-17T15:27:39.621Z,1.15
2022-08-17T15:30:07.199Z,1.23
2022-08-17T15:32:35.731Z,1.10
2022-08-17T15:35:02.771Z,1.30
2022-08-17T15:37:29.492Z,0.80
2022-08-17T15:39:56.278Z,1.20
2022-08-17T15:42:23.040Z,1.42
2022-08-17T15:44:49.673Z,1.10
2022-08-17T15:47:16.428Z,1.20
2022-08-17T15:49:43.702Z,1.20
2022-08-17T15:52:21.162Z,1.10
2022-08-17T15:54:55.474Z,0.90
2022-08-17T15:57:22.189Z,1.27
2022-08-17T15:59:54.006Z,1.10
2022-08-17T16:03:45.965Z,1.20
2022-08-17T16:05:17.528Z,1.10
2022-08-17T16:07:46.650Z,1.10
2022-08-17T16:10:18.640Z,1.20
2022-08-17T16:12:46.221Z,1.10
2022-08-17T16:15:13.145Z,1.20
2022-08-17T16:17:40.809Z,1.08
2022-08-17T16:20:20.472Z,1.25
2022-08-17T16:22:47.742Z,1.27
2022-08-17T16:25:17.086Z,1.00
2022-08-17T16:27:43.819Z,1.25
2022-08-17T16:30:16.947Z,1.10
2022-08-17T16:32:44.185Z,1.00
2022-08-17T16:35:11.472Z,1.15
2022-08-17T16:37:38.611Z,1.30
2022-08-17T16:40:06.461Z,1.05
2022-08-17T16:42:33.976Z,1.23
2022-08-17T16:45:21.693Z,1.10
2022-08-17T16:47:48.326Z,1.38
2022-08-17T16:50:15.700Z,1.20
2022-08-17T16:52:42.384Z,1.17
2022-08-17T16:55:10.474Z,1.05
2022-08-17T16:57:47.387Z,1.20
2022-08-17T17:00:18.472Z,1.10
2022-08-17T17:02:47.586Z,1.27
2022-08-17T17:05:38.651Z,1.38
2022-08-17T17:08:23.973Z,1.10
2022-08-17T17:10:52.590Z,0.90
2022-08-17T17:13:52.358Z,0.90
2022-08-17T17:16:29.674Z,0.90
2022-08-17T17:19:11.376Z,1.00
2022-08-17T17:21:53.162Z,1.10
2022-08-17T17:24:32.753Z,1.00
2022-08-17T17:27:15.218Z,0.90
2022-08-17T17:30:20.378Z,1.40
2022-08-17T17:33:14.986Z,1.20
2022-08-17T17:35:56.768Z,1.33
2022-08-17T17:38:29.180Z,1.00
2022-08-17T17:41:02.531Z,1.40
2022-08-17T17:43:40.147Z,1.25
2022-08-17T17:46:28.429Z,1.20
2022-08-17T17:48:56.627Z,1.30
2022-08-17T17:52:05.261Z,1.60
2022-08-17T17:55:01.354Z,1.20
2022-08-17T17:57:33.810Z,1.45
2022-08-17T18:00:15.123Z,1.40
2022-08-17T18:02:51.942Z,1.20
2022-08-17T18:05:31.471Z,1.20
2022-08-17T18:08:12.263Z,1.40
2022-08-17T18:11:04.535Z,1.15
2022-08-17T18:14:02.362Z,1.02
2022-08-17T18:16:29.184Z,1.38
2022-08-17T18:18:58.524Z,1.23
2022-08-17T18:21:37.939Z,1.40
2022-08-17T18:24:06.276Z,1.55
2022-08-17T18:26:33.034Z,1.38
2022-08-17T18:29:02.700Z,1.40
2022-08-17T18:31:29.382Z,1.38
2022-08-17T18:34:45.865Z,1.42
2022-08-17T18:37:11.409Z,1.50
2022-08-17T18:39:43.061Z,1.40
2022-08-17T18:42:24.336Z,1.30
2022-08-17T18:44:54.877Z,1.35
2022-08-17T18:47:27.208Z,1.38
2022-08-17T18:50:13.496Z,1.38
2022-08-17T18:52:40.178Z,1.45
2022-08-17T18:55:23.873Z,1.45
2022-08-17T18:57:58.285Z,1.48
2022-08-17T19:00:30.554Z,1.45
2022-08-17T19:03:00.995Z,1.40
2022-08-17T19:05:32.828Z,1.25
2022-08-17T19:08:18.207Z,1.50
2022-08-17T19:13:29.023Z,1.40
2022-08-17T19:16:14.718Z,1.35
2022-08-17T19:18:51.006Z,1.42
2022-08-17T19:21:33.537Z,1.48
2022-08-17T19:24:16.671Z,1.70
2022-08-17T19:26:50.585Z,1.50
2022-08-17T19:29:50.072Z,1.40
2022-08-17T19:34:45.129Z,1.45
2022-08-17T19:37:28.221Z,1.60
2022-08-17T19:40:29.249Z,1.70
2022-08-17T19:43:14.551Z,1.60
2022-08-17T19:46:03.843Z,1.60
2022-08-17T19:48:56.973Z,1.60
2022-08-17T19:51:31.311Z,1.33
2022-08-17T19:54:25.811Z,1.50
2022-08-17T19:57:12.276Z,1.58
2022-08-17T19:59:44.994Z,1.50
2022-08-17T20:02:26.423Z,1.40
2022-08-17T20:04:56.228Z,1.50
2022-08-17T20:07:26.258Z,1.50
2022-08-17T20:10:06.025Z,1.30
2022-08-17T20:12:37.555Z,1.65
2022-08-17T20:15:17.999Z,1.58
2022-08-17T20:17:46.121Z,1.60
2022-08-17T20:20:19.655Z,1.52
2022-08-17T20:22:52.757Z,1.70
2022-08-17T20:25:31.425Z,1.65
2022-08-17T20:28:18.716Z,1.65
2022-08-17T20:30:45.576Z,1.67
2022-08-17T20:33:33.513Z,1.40
2022-08-17T20:35:59.949Z,1.50
2022-08-17T20:38:44.742Z,1.30
2022-08-17T20:41:19.121Z,1.40
2022-08-17T20:43:50.639Z,1.20
2022-08-17T20:46:32.725Z,1.80
2022-08-17T20:49:08.252Z,1.40
2022-08-17T20:51:39.487Z,1.42
2022-08-17T20:55:04.807Z,1.48
2022-08-17T20:57:31.277Z,1.70
2022-08-17T21:00:20.738Z,1.33
2022-08-17T21:02:49.132Z,1.50
2022-08-17T21:05:34.344Z,1.55
2022-08-17T21:08:14.768Z,1.75
2022-08-17T21:10:41.776Z,1.50
2022-08-17T21:13:08.549Z,1.95
2022-08-17T21:16:08.987Z,1.20
2022-08-17T21:18:38.569Z,1.75
2022-08-17T21:21:17.899Z,1.48
2022-08-17T21:24:13.709Z,1.50
2022-08-17T21:26:58.871Z,1.70
2022-08-17T21:29:32.286Z,1.45
2022-08-17T21:32:03.321Z,1.40
2022-08-17T21:34:34.714Z,1.60
2022-08-17T21:37:20.332Z,1.80
2022-08-17T21:42:16.360Z,1.48
2022-08-17T21:44:48.177Z,1.58
2022-08-17T21:47:22.077Z,1.60
2022-08-17T21:49:48.846Z,1.58
2022-08-17T21:52:19.044Z,1.55
2022-08-17T21:54:50.242Z,1.80
2022-08-17T21:57:19.120Z,1.80
2022-08-17T21:59:45.787Z,1.70
2022-08-17T22:02:20.210Z,1.60
2022-08-17T22:05:08.660Z,1.73
2022-08-17T22:08:02.403Z,1.50
2022-08-17T22:10:42.216Z,1.40
2022-08-17T22:13:21.709Z,1.17
2022-08-17T22:16:15.606Z,1.40
2022-08-17T22:21:24.594Z,1.40
2022-08-17T22:24:03.797Z,1.80
2022-08-17T22:27:06.061Z,1.70
2022-08-17T22:29:42.912Z,1.65
2022-08-17T22:32:09.617Z,1.50
2022-08-17T22:34:36.293Z,1.65
2022-08-17T22:37:27.272Z,1.63
2022-08-17T22:39:58.522Z,1.50
2022-08-17T22:42:25.241Z,1.67
2022-08-17T22:44:51.877Z,1.58
2022-08-17T22:47:18.409Z,1.50
2022-08-17T22:49:55.879Z,1.80
2022-08-17T22:52:29.946Z,1.60
2022-08-17T22:55:12.383Z,1.52
2022-08-17T22:57:39.081Z,1.75
2022-08-17T23:00:06.243Z,1.50
2022-08-17T23:02:34.397Z,1.80
2022-08-17T23:05:10.081Z,1.65
2022-08-17T23:07:36.762Z,1.38
2022-08-17T23:10:04.026Z,1.55
2022-08-17T23:12:30.635Z,1.40
2022-08-17T23:14:58.569Z,1.52
2022-08-17T23:17:25.269Z,1.35
2022-08-17T23:19:51.933Z,1.60
2022-08-17T23:22:18.526Z,1.40
2022-08-17T23:24:46.238Z,1.55
2022-08-17T23:27:12.882Z,1.25
2022-08-17T23:29:39.596Z,1.42
2022-08-17T23:32:06.409Z,1.70
2022-08-17T23:34:33.144Z,1.27
2022-08-17T23:36:59.764Z,1.77
2022-08-17T23:39:28.240Z,1.50
2022-08-17T23:41:56.474Z,1.63
2022-08-17T23:44:23.221Z,1.58
2022-08-17T23:46:51.045Z,1.50
2022-08-17T23:49:17.728Z,1.70
2022-08-17T23:51:44.438Z,1.90
2022-08-17T23:54:23.288Z,1.98
2022-08-17T23:56:49.925Z,1.70
2022-08-17T23:59:17.883Z,2.13
